Time;durP1;ratioP1;P1;durP2;ratioP2;P2;SDS_P1;SDS_P2;PMS_P1;PMS_P2;Temp;Humidity;BMP_temperature;BMP_pressure;BME280_temperature;BME280_humidity;BME280_pressure;Samples;Min_cycle;Max_cycle;Signal;HPM_P1;HPM_P2
2024/01/06 00:01:36;;;;;;;20.23;16.92;;;;;;;8.20;83.27;100241.78;5058314;28;20074;-63
2024/01/06 00:04:01;;;;;;;19.92;16.08;;;;;;;8.18;82.40;100250.34;5067196;28;20024;-63
2024/01/06 00:06:26;;;;;;;18.40;15.68;;;;;;;8.15;82.17;100250.00;5068684;28;20483;-65
2024/01/06 00:08:54;;;;;;;20.73;16.08;;;;;;;8.16;81.73;100257.22;5052764;28;20032;-64
2024/01/06 00:11:22;;;;;;;17.10;15.25;;;;;;;8.14;81.66;100265.75;5057757;28;20029;-63
2024/01/06 00:13:47;;;;;;;17.25;15.25;;;;;;;8.14;81.53;100268.53;5071105;28;20036;-63
2024/01/06 00:16:13;;;;;;;19.02;16.13;;;;;;;8.14;80.87;100265.75;5066326;28;20025;-63
2024/01/06 00:18:39;;;;;;;18.73;15.35;;;;;;;8.11;81.60;100275.38;5065241;28;20040;-63
2024/01/06 00:21:04;;;;;;;22.60;16.83;;;;;;;8.12;80.76;100274.28;5068511;28;20029;-63
2024/01/06 00:23:30;;;;;;;20.20;16.35;;;;;;;8.14;80.78;100276.00;5053407;28;20039;-63
2024/01/06 00:25:56;;;;;;;19.02;16.60;;;;;;;8.15;81.05;100289.53;5050560;28;20040;-63
2024/01/06 00:28:21;;;;;;;18.40;15.50;;;;;;;8.16;81.01;100284.84;5062774;28;20082;-63
2024/01/06 00:30:46;;;;;;;21.17;17.30;;;;;;;8.16;80.63;100279.31;5085160;28;20426;-63
2024/01/06 00:33:12;;;;;;;19.90;16.98;;;;;;;8.16;80.68;100290.38;5087215;28;20467;-63
2024/01/06 00:35:37;;;;;;;22.75;18.65;;;;;;;8.14;79.85;100284.28;5082956;28;20063;-63
2024/01/06 00:38:03;;;;;;;21.50;19.15;;;;;;;8.05;79.62;100290.19;5066185;28;20129;-63
2024/01/06 00:40:28;;;;;;;20.13;17.70;;;;;;;8.04;79.25;100293.22;5065321;28;20475;-63
2024/01/06 00:42:53;;;;;;;24.02;19.65;;;;;;;7.97;78.71;100293.38;5054961;28;20025;-64
2024/01/06 00:45:19;;;;;;;25.83;19.88;;;;;;;8.01;79.35;100296.47;5071158;28;20112;-65
2024/01/06 00:47:44;;;;;;;24.30;20.65;;;;;;;7.95;78.89;100294.72;5081181;28;20032;-64
2024/01/06 00:50:09;;;;;;;26.23;20.75;;;;;;;8.01;79.55;100299.25;5090421;28;20375;-64
2024/01/06 00:52:34;;;;;;;27.27;20.80;;;;;;;8.01;78.86;100296.47;5078213;28;20123;-64
2024/01/06 00:55:00;;;;;;;27.88;21.80;;;;;;;7.98;79.38;100297.84;5070141;28;20488;-64
2024/01/06 00:57:25;;;;;;;26.17;21.08;;;;;;;7.99;78.84;100299.50;5065347;28;20033;-64
2024/01/06 00:59:50;;;;;;;25.27;20.15;;;;;;;7.98;78.81;100297.00;5070583;28;20430;-63
2024/01/06 01:02:16;;;;;;;25.23;20.20;;;;;;;7.97;78.87;100307.19;5071548;28;20025;-63
2024/01/06 01:04:41;;;;;;;25.80;20.33;;;;;;;7.96;79.06;100304.69;5057058;28;20035;-63
2024/01/06 01:07:07;;;;;;;25.40;19.67;;;;;;;7.99;79.13;100309.72;5087883;28;20036;-63
2024/01/06 01:09:32;;;;;;;25.75;20.30;;;;;;;7.96;78.94;100311.06;5075261;28;20361;-63
2024/01/06 01:11:57;;;;;;;25.52;19.95;;;;;;;7.98;78.89;100314.41;5067145;28;20066;-63
2024/01/06 01:14:25;;;;;;;25.75;19.67;;;;;;;7.95;78.45;100317.66;5055327;28;20045;-63
2024/01/06 01:16:51;;;;;;;25.02;19.65;;;;;;;7.94;78.35;100318.75;5053902;28;20040;-63
2024/01/06 01:19:16;;;;;;;24.67;19.60;;;;;;;7.93;78.07;100319.84;5071182;28;20033;-63
2024/01/06 01:21:44;;;;;;;25.48;18.90;;;;;;;7.91;78.41;100319.25;5069115;28;20037;-63
2024/01/06 01:24:09;;;;;;;27.33;20.40;;;;;;;7.88;77.72;100317.81;5073247;28;20052;-64
2024/01/06 01:26:34;;;;;;;24.08;19.83;;;;;;;7.84;77.95;100319.41;5066614;28;20126;-63
2024/01/06 01:29:00;;;;;;;23.17;19.15;;;;;;;7.93;78.82;100325.34;5060930;28;20032;-63
2024/01/06 01:31:25;;;;;;;24.25;19.80;;;;;;;7.90;77.84;100328.66;5089036;28;20031;-63
2024/01/06 01:33:53;;;;;;;25.85;20.13;;;;;;;7.88;77.90;100322.50;5094035;28;20031;-63
2024/01/06 01:36:18;;;;;;;23.83;19.95;;;;;;;7.85;77.59;100342.34;5088442;28;20067;-64
2024/01/06 01:38:43;;;;;;;25.55;19.35;;;;;;;7.88;78.52;100336.31;5080760;28;20044;-63
2024/01/06 01:41:09;;;;;;;26.15;19.75;;;;;;;7.86;78.30;100336.59;5093527;28;20040;-63
2024/01/06 01:43:34;;;;;;;23.90;19.75;;;;;;;7.86;78.14;100347.63;5093076;28;20060;-63
2024/01/06 01:46:00;;;;;;;23.92;19.42;;;;;;;7.86;78.06;100346.81;5065187;28;20135;-63
2024/01/06 01:48:25;;;;;;;22.35;19.02;;;;;;;7.89;77.67;100349.03;5066445;28;20464;-63
2024/01/06 01:50:53;;;;;;;24.55;18.83;;;;;;;7.87;78.10;100352.06;5093439;28;20074;-64
2024/01/06 01:53:19;;;;;;;24.48;18.85;;;;;;;7.87;77.98;100354.00;5072830;28;20052;-63
2024/01/06 01:55:46;;;;;;;21.67;17.33;;;;;;;7.89;78.37;100362.88;5073631;28;20062;-63
2024/01/06 01:58:13;;;;;;;21.70;18.02;;;;;;;7.85;77.60;100364.44;5064881;28;20037;-63
2024/01/06 02:00:41;;;;;;;24.27;18.17;;;;;;;7.87;77.86;100367.81;5053151;28;20381;-63
2024/01/06 02:03:09;;;;;;;19.65;16.67;;;;;;;7.87;77.59;100359.53;5056704;28;20115;-63
2024/01/06 02:05:34;;;;;;;21.02;17.70;;;;;;;7.85;77.92;100369.97;5068166;28;20032;-63
2024/01/06 02:07:59;;;;;;;20.63;17.13;;;;;;;7.88;77.16;100363.97;5086174;28;20078;-63
2024/01/06 02:10:25;;;;;;;20.75;17.38;;;;;;;7.81;76.98;100366.03;5089960;28;20032;-64
2024/01/06 02:12:51;;;;;;;21.95;17.10;;;;;;;7.75;77.12;100364.28;5088895;28;20488;-63
2024/01/06 02:15:17;;;;;;;17.92;15.57;;;;;;;7.65;76.70;100372.34;5081453;28;20040;-63
2024/01/06 02:17:42;;;;;;;16.17;14.35;;;;;;;7.71;76.61;100374.97;5086743;28;20044;-64
2024/01/06 02:20:09;;;;;;;16.17;14.02;;;;;;;7.65;75.82;100384.22;5078746;28;20028;-63
2024/01/06 02:22:40;;;;;;;15.50;13.88;;;;;;;7.65;76.18;100384.22;5070175;28;20032;-64
2024/01/06 02:25:12;;;;;;;15.82;13.77;;;;;;;7.62;75.68;100391.09;5081426;28;20394;-64
2024/01/06 02:27:40;;;;;;;15.48;13.10;;;;;;;7.57;75.90;100393.72;5088300;28;20089;-63
2024/01/06 02:30:07;;;;;;;15.50;13.90;;;;;;;7.56;76.23;100399.50;5091740;28;20031;-63
2024/01/06 02:32:32;;;;;;;15.52;13.93;;;;;;;7.56;75.62;100411.41;5086468;28;20063;-63
2024/01/06 02:34:57;;;;;;;16.65;13.00;;;;;;;7.55;75.60;100409.72;5060576;28;20065;-63
2024/01/06 02:37:23;;;;;;;14.35;12.63;;;;;;;7.55;75.38;100408.88;5079145;28;20027;-63
2024/01/06 02:39:53;;;;;;;13.82;12.40;;;;;;;7.54;75.63;100412.72;5091813;28;20048;-63
2024/01/06 02:42:18;;;;;;;12.30;11.10;;;;;;;7.50;75.62;100417.88;5067510;28;20025;-64
2024/01/06 02:44:46;;;;;;;13.20;11.80;;;;;;;7.48;75.48;100428.34;5069071;28;20047;-63
2024/01/06 02:47:11;;;;;;;12.77;11.20;;;;;;;7.54;76.06;100427.34;5052284;28;20086;-63
2024/01/06 02:49:36;;;;;;;12.50;10.77;;;;;;;7.51;74.77;100433.38;5089806;28;20027;-63
2024/01/06 02:52:02;;;;;;;11.95;10.45;;;;;;;7.53;74.74;100431.22;5086084;28;20043;-63
2024/01/06 02:54:27;;;;;;;12.85;11.55;;;;;;;7.50;75.04;100437.22;5076584;28;20090;-63
2024/01/06 02:56:52;;;;;;;12.43;11.23;;;;;;;7.54;74.58;100437.56;5063757;28;20098;-63
2024/01/06 02:59:18;;;;;;;11.60;10.45;;;;;;;7.54;74.16;100443.09;5089467;28;20031;-64
2024/01/06 03:01:43;;;;;;;12.48;11.07;;;;;;;7.47;73.92;100453.47;5070328;28;20028;-63
2024/01/06 03:04:08;;;;;;;12.57;11.27;;;;;;;7.44;74.44;100460.28;5079731;28;20028;-64
2024/01/06 03:06:34;;;;;;;13.13;11.82;;;;;;;7.47;74.36;100459.81;5088658;28;20048;-63
2024/01/06 03:08:59;;;;;;;12.95;11.55;;;;;;;7.49;74.05;100463.16;5082260;28;20479;-64
2024/01/06 03:11:24;;;;;;;13.48;11.93;;;;;;;7.50;73.79;100472.28;5079932;28;20040;-63
2024/01/06 03:13:50;;;;;;;13.15;11.48;;;;;;;7.48;74.20;100471.69;5074460;28;20099;-63
2024/01/06 03:16:15;;;;;;;13.82;12.43;;;;;;;7.49;74.54;100473.38;5074954;28;20033;-63
2024/01/06 03:18:46;;;;;;;13.50;12.18;;;;;;;7.45;73.51;100484.06;5051065;28;20048;-63
2024/01/06 03:21:19;;;;;;;12.30;11.00;;;;;;;7.41;73.64;100485.63;5060810;28;20029;-65
2024/01/06 03:23:45;;;;;;;12.02;10.73;;;;;;;7.40;73.42;100480.34;5086729;28;20105;-64
2024/01/06 03:26:10;;;;;;;13.30;10.98;;;;;;;7.38;73.90;100484.16;5091021;28;20093;-63
2024/01/06 03:28:35;;;;;;;12.07;10.82;;;;;;;7.38;74.01;100489.69;5087828;28;20036;-63
2024/01/06 03:31:03;;;;;;;12.40;10.50;;;;;;;7.39;74.51;100490.56;5085821;28;20029;-63
2024/01/06 03:33:28;;;;;;;11.90;10.70;;;;;;;7.38;73.33;100497.97;5074061;28;20036;-64
2024/01/06 03:35:54;;;;;;;11.20;10.10;;;;;;;7.39;73.73;100498.84;5069427;28;20411;-63
2024/01/06 03:38:25;;;;;;;12.07;10.50;;;;;;;7.41;73.84;100504.13;5062586;28;20477;-63
2024/01/06 03:40:50;;;;;;;11.10;10.00;;;;;;;7.38;73.23;100497.97;5081467;28;20055;-63
2024/01/06 03:43:16;;;;;;;10.90;9.80;;;;;;;7.41;72.61;100504.94;5080534;28;20029;-63
2024/01/06 03:45:41;;;;;;;9.85;8.85;;;;;;;7.42;73.00;100511.31;5080095;28;20680;-64
2024/01/06 03:48:07;;;;;;;9.98;8.98;;;;;;;7.42;73.00;100519.59;5080373;28;20028;-63
2024/01/06 03:50:32;;;;;;;9.30;8.40;;;;;;;7.40;71.84;100519.84;5083708;28;20106;-64
2024/01/06 03:52:57;;;;;;;10.40;7.97;;;;;;;7.36;71.79;100518.66;5062028;28;20029;-63
2024/01/06 03:55:22;;;;;;;8.50;7.70;;;;;;;7.32;72.16;100522.97;5056556;28;20100;-63
2024/01/06 03:57:48;;;;;;;7.90;7.05;;;;;;;7.31;72.67;100522.13;5067335;28;20039;-64
2024/01/06 04:00:13;;;;;;;8.10;7.30;;;;;;;7.33;71.70;100524.63;5081926;28;20094;-64
2024/01/06 04:02:39;;;;;;;7.65;6.95;;;;;;;7.30;71.42;100523.19;5087029;28;20086;-63
2024/01/06 04:05:05;;;;;;;8.07;7.32;;;;;;;7.31;71.77;100516.59;5071928;28;20414;-64
2024/01/06 04:07:33;;;;;;;8.77;7.45;;;;;;;7.29;71.13;100523.44;5082987;28;20028;-64
2024/01/06 04:09:58;;;;;;;8.73;7.97;;;;;;;7.28;71.75;100530.03;5080082;28;20496;-63
2024/01/06 04:12:23;;;;;;;9.18;8.30;;;;;;;7.27;71.71;100525.59;5085612;28;20056;-63
2024/01/06 04:14:51;;;;;;;9.65;8.75;;;;;;;7.27;72.07;100531.09;5089264;28;20020;-63
2024/01/06 04:17:17;;;;;;;10.27;8.70;;;;;;;7.25;72.01;100527.75;5091478;28;20437;-63
2024/01/06 04:19:42;;;;;;;10.20;9.07;;;;;;;7.21;71.65;100527.41;5084915;28;20112;-65
2024/01/06 04:22:07;;;;;;;10.18;9.15;;;;;;;7.21;71.53;100532.91;5069777;28;20118;-62
2024/01/06 04:24:36;;;;;;;10.20;9.30;;;;;;;7.25;71.84;100534.13;5071412;28;20032;-63
2024/01/06 04:27:08;;;;;;;12.15;10.02;;;;;;;7.23;72.69;100538.19;5070939;28;20037;-63
2024/01/06 04:29:33;;;;;;;11.55;10.48;;;;;;;7.18;71.88;100543.59;5087728;28;20035;-63
2024/01/06 04:31:58;;;;;;;11.50;10.27;;;;;;;7.20;72.20;100544.22;5077247;28;20107;-64
2024/01/06 04:34:23;;;;;;;11.60;10.60;;;;;;;7.23;72.02;100552.00;5079757;28;20023;-63
2024/01/06 04:36:50;;;;;;;11.82;10.73;;;;;;;7.22;72.70;100550.31;5082133;28;20036;-63
2024/01/06 04:39:15;;;;;;;11.07;10.07;;;;;;;7.19;72.12;100556.31;5084395;28;20429;-62
2024/01/06 04:41:40;;;;;;;15.38;10.65;;;;;;;7.16;72.21;100560.41;5073510;28;20103;-62
2024/01/06 04:44:06;;;;;;;10.48;9.20;;;;;;;7.15;71.20;100555.94;5064604;28;20059;-63
2024/01/06 04:46:31;;;;;;;11.25;10.00;;;;;;;7.14;71.26;100565.31;5086012;28;20417;-64
2024/01/06 04:48:56;;;;;;;11.32;10.32;;;;;;;7.04;71.56;100565.91;5091162;28;20036;-64
2024/01/06 04:51:22;;;;;;;10.45;9.45;;;;;;;7.09;71.51;100570.69;5081086;28;20032;-63
2024/01/06 04:53:47;;;;;;;9.60;8.60;;;;;;;7.07;71.60;100581.13;5061433;28;20375;-63
2024/01/06 04:56:13;;;;;;;9.38;8.48;;;;;;;7.04;71.85;100574.19;5070781;28;20388;-63
2024/01/06 04:58:38;;;;;;;8.82;7.93;;;;;;;7.05;71.65;100584.13;5050463;28;20052;-63
2024/01/06 05:01:04;;;;;;;8.32;7.53;;;;;;;7.08;70.88;100585.59;5060926;28;20032;-63
2024/01/06 05:03:29;;;;;;;8.10;7.30;;;;;;;7.09;70.98;100588.09;5063878;28;20043;-63
2024/01/06 05:05:55;;;;;;;7.40;6.72;;;;;;;7.10;71.07;100587.00;5065285;28;20031;-63
2024/01/06 05:08:22;;;;;;;7.00;6.38;;;;;;;7.11;71.63;100590.59;5058664;28;20653;-63
2024/01/06 05:10:47;;;;;;;7.55;6.80;;;;;;;7.11;70.65;100597.00;5087348;28;20032;-63
2024/01/06 05:13:17;;;;;;;6.03;5.38;;;;;;;7.05;70.69;100600.69;5083615;28;20028;-63
2024/01/06 05:15:42;;;;;;;5.53;4.97;;;;;;;6.99;70.29;100598.84;5089653;28;20765;-63
2024/01/06 05:18:07;;;;;;;5.72;5.28;;;;;;;6.99;70.50;100600.78;5085536;28;20115;-63
2024/01/06 05:20:33;;;;;;;5.40;5.00;;;;;;;6.99;70.31;100604.38;5089846;28;20108;-63
2024/01/06 05:22:58;;;;;;;4.75;4.43;;;;;;;6.98;70.32;100608.22;5078607;28;20482;-63
2024/01/06 05:25:23;;;;;;;5.57;5.07;;;;;;;6.98;70.31;100610.16;5063569;28;20099;-63
2024/01/06 05:27:49;;;;;;;5.15;4.75;;;;;;;7.03;70.47;100613.03;5083357;28;20036;-63
2024/01/06 05:30:14;;;;;;;5.13;4.72;;;;;;;6.99;69.55;100618.19;5081006;28;20028;-63
2024/01/06 05:32:39;;;;;;;4.85;4.45;;;;;;;6.93;69.88;100615.53;5073670;28;21117;-63
2024/01/06 05:35:05;;;;;;;6.20;4.75;;;;;;;6.92;70.32;100611.94;5052943;28;20434;-63
2024/01/06 05:37:31;;;;;;;5.63;5.20;;;;;;;6.93;70.30;100621.06;5072165;28;20090;-63
2024/01/06 05:40:01;;;;;;;5.65;5.15;;;;;;;6.93;69.84;100619.13;5058524;28;20173;-63
2024/01/06 05:42:26;;;;;;;5.53;5.03;;;;;;;6.96;70.39;100631.63;5081415;28;20020;-63
2024/01/06 05:44:52;;;;;;;5.18;4.78;;;;;;;6.96;70.36;100629.72;5085870;28;20077;-63
2024/01/06 05:47:17;;;;;;;5.07;4.63;;;;;;;6.95;69.38;100643.72;5074655;28;20055;-63
2024/01/06 05:49:45;;;;;;;4.15;3.83;;;;;;;6.95;69.59;100643.72;5062480;28;20021;-63
2024/01/06 05:52:11;;;;;;;4.88;4.47;;;;;;;6.88;69.48;100643.84;5067568;28;20108;-64
2024/01/06 05:54:36;;;;;;;5.65;5.15;;;;;;;6.85;68.86;100650.66;5088829;28;20111;-63
2024/01/06 05:57:02;;;;;;;5.47;4.95;;;;;;;6.89;69.26;100656.53;5086536;28;20032;-63
2024/01/06 05:59:27;;;;;;;6.30;5.43;;;;;;;6.91;69.94;100654.38;5081615;28;20123;-63
2024/01/06 06:01:52;;;;;;;5.88;5.38;;;;;;;6.91;69.76;100653.53;5071369;28;20031;-63
2024/01/06 06:04:18;;;;;;;6.03;5.45;;;;;;;6.94;69.59;100653.09;5087490;28;20040;-62
2024/01/06 06:06:44;;;;;;;5.80;5.30;;;;;;;6.92;69.51;100664.38;5085059;28;20360;-65
2024/01/06 06:09:10;;;;;;;5.90;5.25;;;;;;;6.95;69.53;100672.16;5074235;28;20047;-65
2024/01/06 06:11:35;;;;;;;6.40;5.78;;;;;;;6.90;69.36;100669.25;5091982;28;20554;-65
2024/01/06 06:14:02;;;;;;;6.35;5.75;;;;;;;6.89;69.76;100673.94;5084308;28;20031;-64
2024/01/06 06:16:28;;;;;;;6.15;5.55;;;;;;;6.87;69.03;100681.59;5093990;28;20103;-65
2024/01/06 06:18:54;;;;;;;5.47;4.97;;;;;;;6.84;68.82;100684.00;5089871;28;20103;-64
2024/01/06 06:21:23;;;;;;;5.30;4.90;;;;;;;6.85;68.69;100680.16;5092908;28;20036;-65
2024/01/06 06:23:48;;;;;;;5.47;4.97;;;;;;;6.82;68.13;100689.72;5081328;28;20081;-65
2024/01/06 06:26:14;;;;;;;6.45;5.82;;;;;;;6.81;68.76;100695.50;5075930;28;20036;-64
2024/01/06 06:28:39;;;;;;;6.53;5.93;;;;;;;6.77;68.95;100706.16;5063393;28;20033;-65
2024/01/06 06:31:04;;;;;;;7.07;6.38;;;;;;;6.76;68.64;100706.38;5075765;28;20111;-63
2024/01/06 06:33:30;;;;;;;7.07;6.40;;;;;;;6.77;69.58;100708.91;5091569;28;20075;-65
2024/01/06 06:35:55;;;;;;;7.95;7.25;;;;;;;6.77;68.89;100708.06;5091940;28;20032;-64
2024/01/06 06:38:21;;;;;;;8.10;7.35;;;;;;;6.74;69.02;100714.88;5066065;28;20021;-65
2024/01/06 06:40:47;;;;;;;8.07;7.38;;;;;;;6.74;69.02;100714.03;5080015;28;20041;-65
2024/01/06 06:43:12;;;;;;;8.02;7.30;;;;;;;6.72;69.30;100716.19;5055249;28;20025;-64
2024/01/06 06:45:38;;;;;;;7.32;6.63;;;;;;;6.72;69.67;100722.56;5072797;28;20063;-64
2024/01/06 06:48:03;;;;;;;7.85;7.07;;;;;;;6.73;69.20;100715.13;5085155;28;20460;-63
2024/01/06 06:50:29;;;;;;;8.07;7.28;;;;;;;6.77;69.23;100719.09;5085385;28;20225;-64
2024/01/06 06:52:54;;;;;;;7.93;7.13;;;;;;;6.71;69.26;100736.56;5092294;28;20026;-65
2024/01/06 06:55:19;;;;;;;7.38;6.68;;;;;;;6.68;69.96;100731.50;5085984;28;20032;-64
2024/01/06 06:57:47;;;;;;;7.40;6.68;;;;;;;6.68;69.13;100742.53;5087132;28;20071;-64
2024/01/06 07:00:13;;;;;;;7.85;7.05;;;;;;;6.64;68.96;100748.53;5065896;28;20028;-66
2024/01/06 07:02:38;;;;;;;6.60;6.00;;;;;;;6.66;69.50;100747.44;5073264;28;20159;-64
2024/01/06 07:05:06;;;;;;;7.28;6.05;;;;;;;6.66;68.84;100762.09;5067769;28;20028;-64
2024/01/06 07:07:35;;;;;;;6.45;5.85;;;;;;;6.64;68.89;100767.84;5076380;28;20029;-64
2024/01/06 07:10:03;;;;;;;6.25;5.70;;;;;;;6.65;69.92;100765.91;5071401;28;20161;-64
2024/01/06 07:12:28;;;;;;;8.48;7.65;;;;;;;6.64;69.47;100770.59;5085499;28;20029;-64
2024/01/06 07:14:53;;;;;;;8.93;8.05;;;;;;;6.68;70.08;100770.13;5057326;28;20044;-65
2024/01/06 07:17:21;;;;;;;9.05;8.13;;;;;;;6.65;70.00;100776.94;5051916;28;20029;-64
2024/01/06 07:19:48;;;;;;;11.23;9.30;;;;;;;6.62;69.96;100781.00;5071812;28;20045;-64
2024/01/06 07:22:15;;;;;;;9.63;8.63;;;;;;;6.63;70.27;100787.34;5054295;28;20028;-64
2024/01/06 07:24:40;;;;;;;10.15;8.77;;;;;;;6.63;70.00;100788.19;5085329;28;20070;-64
2024/01/06 07:27:05;;;;;;;9.07;8.27;;;;;;;6.61;70.43;100795.88;5081604;28;20098;-64
2024/01/06 07:29:31;;;;;;;9.80;8.90;;;;;;;6.64;71.20;100792.66;5056767;28;20071;-64
2024/01/06 07:31:57;;;;;;;10.52;9.02;;;;;;;6.65;70.78;100796.25;5073143;28;20201;-64
2024/01/06 07:34:22;;;;;;;9.93;8.98;;;;;;;6.63;70.89;100787.34;5059874;28;20112;-64
2024/01/06 07:36:50;;;;;;;10.15;9.15;;;;;;;6.66;70.29;100797.09;5085344;28;20452;-64
2024/01/06 07:39:15;;;;;;;10.68;9.68;;;;;;;6.66;70.80;100791.59;5092182;28;20078;-64
2024/01/06 07:41:44;;;;;;;10.27;9.27;;;;;;;6.63;70.52;100799.22;5090724;28;20027;-66
2024/01/06 07:44:10;;;;;;;11.60;9.35;;;;;;;6.59;70.70;100797.16;5086428;28;20070;-65
2024/01/06 07:46:36;;;;;;;10.57;9.57;;;;;;;6.58;71.22;100806.50;5076516;28;20039;-64
2024/01/06 07:49:02;;;;;;;10.60;9.27;;;;;;;6.57;70.89;100808.44;5081647;28;20024;-65
2024/01/06 07:51:27;;;;;;;10.65;9.25;;;;;;;6.58;71.03;100818.38;5062611;28;20047;-64
2024/01/06 07:53:59;;;;;;;10.68;9.63;;;;;;;6.59;70.74;100819.22;5074942;28;20024;-64
2024/01/06 07:56:24;;;;;;;11.70;9.85;;;;;;;6.54;70.61;100819.06;5081462;28;20085;-65
2024/01/06 07:58:49;;;;;;;9.75;8.80;;;;;;;6.57;70.91;100824.13;5091603;28;20024;-64
2024/01/06 08:01:15;;;;;;;13.23;9.13;;;;;;;6.58;71.31;100829.41;5067327;28;20025;-64
2024/01/06 08:03:40;;;;;;;9.35;8.45;;;;;;;6.58;71.11;100829.41;5090400;28;20377;-65
2024/01/06 08:06:06;;;;;;;10.10;8.93;;;;;;;6.57;71.50;100830.50;5061277;28;20121;-64
2024/01/06 08:08:31;;;;;;;10.75;9.30;;;;;;;6.58;71.24;100842.38;5081954;28;20524;-64
2024/01/06 08:10:56;;;;;;;10.65;9.32;;;;;;;6.48;72.04;100840.09;5061164;28;20525;-64
2024/01/06 08:13:22;;;;;;;9.95;8.60;;;;;;;6.55;71.66;100853.84;5062314;28;20034;-64
2024/01/06 08:15:48;;;;;;;10.95;9.07;;;;;;;6.56;71.48;100853.63;5056943;28;20094;-64
2024/01/06 08:18:13;;;;;;;10.20;9.20;;;;;;;6.52;71.77;100859.81;5061997;28;20035;-64
2024/01/06 08:20:38;;;;;;;10.05;9.05;;;;;;;6.53;72.00;100867.03;5072036;28;20395;-64
2024/01/06 08:23:04;;;;;;;11.10;9.32;;;;;;;6.55;72.13;100864.88;5075940;28;20033;-65
2024/01/06 08:25:29;;;;;;;9.68;8.68;;;;;;;6.48;71.92;100872.34;5079070;28;20463;-65
2024/01/06 08:27:54;;;;;;;11.15;9.57;;;;;;;6.48;72.67;100866.84;5076436;28;20043;-64
2024/01/06 08:30:20;;;;;;;10.82;9.73;;;;;;;6.51;72.73;100872.75;5088513;28;20111;-65
2024/01/06 08:32:45;;;;;;;11.63;9.38;;;;;;;6.49;72.00;100872.16;5053616;28;20100;-65
2024/01/06 08:35:11;;;;;;;11.07;9.20;;;;;;;6.51;72.83;100883.78;5060729;28;20037;-65
2024/01/06 08:37:36;;;;;;;10.60;9.50;;;;;;;6.51;71.97;100889.28;5053014;28;20053;-65
2024/01/06 08:40:04;;;;;;;12.07;9.75;;;;;;;6.52;72.14;100888.22;5051113;28;20045;-64
2024/01/06 08:42:30;;;;;;;11.30;9.98;;;;;;;6.51;72.28;100893.97;5062969;28;20510;-64
2024/01/06 08:44:55;;;;;;;13.50;11.10;;;;;;;6.51;72.68;100902.25;5077067;28;20025;-64
2024/01/06 08:47:20;;;;;;;14.65;10.77;;;;;;;6.48;72.37;100902.69;5072619;28;20020;-65
2024/01/06 08:49:45;;;;;;;10.73;9.60;;;;;;;6.52;72.92;100904.75;5070319;28;20024;-60
2024/01/06 08:52:11;;;;;;;11.25;10.15;;;;;;;6.50;72.47;100906.91;5071460;28;20025;-60
2024/01/06 08:54:36;;;;;;;11.45;10.05;;;;;;;6.52;72.61;100915.78;5079610;28;20468;-64
2024/01/06 08:57:01;;;;;;;11.70;10.13;;;;;;;6.50;72.80;100922.63;5060753;28;20041;-65
2024/01/06 08:59:27;;;;;;;11.75;9.82;;;;;;;6.48;72.52;100925.59;5050092;28;20041;-65
2024/01/06 09:01:52;;;;;;;12.52;10.27;;;;;;;6.48;73.27;100930.25;5051882;28;20070;-64
2024/01/06 09:04:18;;;;;;;11.90;9.88;;;;;;;6.46;72.03;100932.41;5059206;28;20499;-65
2024/01/06 09:06:43;;;;;;;10.50;9.50;;;;;;;6.42;71.68;100937.53;5059427;28;20123;-65
2024/01/06 09:09:09;;;;;;;10.25;9.25;;;;;;;6.41;72.27;100940.53;5067724;28;20029;-65
2024/01/06 09:11:35;;;;;;;10.40;9.40;;;;;;;6.42;73.05;100943.03;5062603;28;20426;-65
2024/01/06 09:14:00;;;;;;;10.93;9.30;;;;;;;6.40;72.54;100947.91;5070199;28;20020;-65
2024/01/06 09:16:26;;;;;;;10.43;9.40;;;;;;;6.39;72.23;100944.31;5068391;28;20032;-65
2024/01/06 09:18:51;;;;;;;11.30;10.05;;;;;;;6.40;72.00;100950.69;5053657;28;20029;-65
2024/01/06 09:21:17;;;;;;;12.13;9.73;;;;;;;6.38;71.70;100950.06;5062947;28;20166;-65
2024/01/06 09:23:42;;;;;;;11.55;10.35;;;;;;;6.31;72.19;100955.63;5051370;28;20484;-65
2024/01/06 09:26:08;;;;;;;10.77;9.68;;;;;;;6.33;71.93;100960.94;5051179;28;20112;-65
2024/01/06 09:28:36;;;;;;;10.35;9.43;;;;;;;6.35;72.46;100958.78;5052916;28;20036;-65
2024/01/06 09:31:01;;;;;;;10.38;9.40;;;;;;;6.39;71.79;100971.06;5053712;28;20032;-64
2024/01/06 09:33:26;;;;;;;11.77;9.60;;;;;;;6.39;71.77;100968.28;5068671;28;20392;-65
2024/01/06 09:35:52;;;;;;;10.48;9.43;;;;;;;6.38;72.33;100970.22;5072558;28;20101;-65
2024/01/06 09:38:18;;;;;;;10.60;9.50;;;;;;;6.39;71.62;100976.56;5054893;28;20112;-65
2024/01/06 09:40:44;;;;;;;10.75;9.45;;;;;;;6.42;71.09;100986.31;5073116;28;20048;-64
2024/01/06 09:43:12;;;;;;;10.15;9.02;;;;;;;6.40;71.01;100994.78;5062917;28;20033;-65
2024/01/06 09:45:39;;;;;;;11.45;8.63;;;;;;;6.41;70.76;100992.91;5054173;28;20033;-65
2024/01/06 09:48:12;;;;;;;9.52;8.52;;;;;;;6.42;70.05;100998.19;5062206;28;20033;-65
2024/01/06 09:50:41;;;;;;;10.88;8.70;;;;;;;6.38;70.33;100999.69;5054331;28;20442;-64
2024/01/06 09:53:08;;;;;;;9.60;8.70;;;;;;;6.39;70.97;101009.66;5061486;28;20170;-65
2024/01/06 09:55:35;;;;;;;10.13;9.13;;;;;;;6.41;70.56;101013.03;5072183;28;20437;-65
2024/01/06 09:58:00;;;;;;;9.63;8.70;;;;;;;6.35;70.30;101012.00;5063759;28;20392;-65
2024/01/06 10:00:26;;;;;;;9.90;8.95;;;;;;;6.37;70.12;101020.06;5060508;28;20029;-65
2024/01/06 10:02:51;;;;;;;10.60;9.60;;;;;;;6.35;70.19;101020.28;5056760;28;20029;-64
2024/01/06 10:05:18;;;;;;;10.10;8.60;;;;;;;6.34;69.91;101026.00;5074001;28;20021;-65
2024/01/06 10:07:44;;;;;;;9.40;8.50;;;;;;;6.37;70.19;101022.81;5056333;28;20056;-65
2024/01/06 10:10:12;;;;;;;10.30;8.88;;;;;;;6.33;69.96;101022.41;5070815;28;20035;-65
2024/01/06 10:12:39;;;;;;;10.02;8.73;;;;;;;6.34;70.72;101026.00;5057604;28;20071;-64
2024/01/06 10:15:06;;;;;;;9.52;8.52;;;;;;;6.28;70.03;101033.25;5077247;28;20030;-64
2024/01/06 10:17:31;;;;;;;9.85;8.88;;;;;;;6.31;70.04;101029.22;5079019;28;20036;-64
2024/01/06 10:19:57;;;;;;;11.60;9.25;;;;;;;6.30;70.63;101050.41;5074134;28;20028;-64
2024/01/06 10:22:25;;;;;;;10.30;9.25;;;;;;;6.29;70.61;101047.91;5093838;28;20020;-64
2024/01/06 10:24:50;;;;;;;9.32;8.30;;;;;;;6.25;70.37;101047.50;5060386;28;20084;-64
2024/01/06 10:27:16;;;;;;;9.63;8.70;;;;;;;6.26;70.19;101048.34;5086971;28;20585;-68
2024/01/06 10:29:42;;;;;;;9.75;8.27;;;;;;;6.25;69.67;101047.50;5087191;28;20089;-68
2024/01/06 10:32:08;;;;;;;10.98;8.35;;;;;;;6.24;70.25;101044.94;5076784;28;20032;-68
2024/01/06 10:34:39;;;;;;;10.43;8.98;;;;;;;6.23;70.28;101040.50;5068919;28;20036;-68
2024/01/06 10:37:05;;;;;;;9.98;8.93;;;;;;;6.26;70.64;101043.66;5060760;28;20037;-64
2024/01/06 10:39:31;;;;;;;10.27;9.18;;;;;;;6.33;70.12;101043.63;5071691;28;20027;-63
2024/01/06 10:42:00;;;;;;;9.77;8.77;;;;;;;6.24;70.46;101051.28;5092892;28;20469;-64
2024/01/06 10:44:27;;;;;;;9.75;8.75;;;;;;;6.23;70.31;101057.03;5058438;28;20473;-65
2024/01/06 10:46:52;;;;;;;10.07;8.95;;;;;;;6.25;70.62;101052.13;5057535;28;20112;-65
2024/01/06 10:49:21;;;;;;;9.73;8.73;;;;;;;6.23;70.78;101060.63;5060007;28;20539;-65
2024/01/06 10:51:49;;;;;;;10.10;8.98;;;;;;;6.25;70.31;101055.75;5054938;28;20814;-64
2024/01/06 10:54:15;;;;;;;10.77;9.68;;;;;;;6.24;70.43;101059.56;5060098;28;20111;-65
2024/01/06 10:56:43;;;;;;;12.93;9.25;;;;;;;6.25;70.31;101057.63;5064744;28;20116;-65
2024/01/06 10:59:08;;;;;;;11.18;9.35;;;;;;;6.21;71.20;101064.66;5057320;28;20495;-64
2024/01/06 11:01:35;;;;;;;11.15;9.38;;;;;;;6.24;70.51;101066.97;5064811;28;20021;-65
2024/01/06 11:04:03;;;;;;;10.73;9.02;;;;;;;6.25;70.82;101060.41;5061408;28;20028;-65
2024/01/06 11:06:29;;;;;;;12.52;8.93;;;;;;;6.27;70.47;101063.78;5058507;28;20041;-65
2024/01/06 11:09:09;;;;;;;10.43;9.25;;;;;;;6.32;71.17;101064.81;5060662;28;20115;-65
2024/01/06 11:11:37;;;;;;;12.50;8.70;;;;;;;6.33;70.38;101069.28;5054095;28;20033;-64
2024/01/06 11:14:24;;;;;;;10.82;7.85;;;;;;;6.36;70.63;101070.72;5057253;28;20064;-65
2024/01/06 11:16:49;;;;;;;10.02;8.63;;;;;;;6.24;69.30;101076.09;5060104;28;20036;-65
2024/01/06 11:19:33;;;;;;;9.05;8.05;;;;;;;6.26;70.09;101068.47;5055133;28;20090;-65